Terminal Aerodrome Forecast
Issued by NWS

Home | Current Version | Previous Version | Text Only | Print | Product List | Glossary On
Versions: 1 2 3 4 5 6 7 8 9 10 11 12 13 14 15 16 17 18 19 20 21 22 23
166
FTUS43 KBIS 071120
TAFJMS
TAF
KJMS 071120Z 0712/0812 30027G38KT 2SM BLSN OVC035
     FM071700 30025G35KT 4SM BLSN VCSH BKN040
     FM080100 31022G31KT P6SM VCSH OVC035
     FM080300 31021G29KT P6SM OVC025
     FM080600 31020KT P6SM OVC020=

USA.gov is the U.S. government's official web portal to all federal, state and local government web resources and services.